world map with ILD marked

ILD - Airport

This information may not be accurate or current and is not valid for navigation or flight planning. No warranty of fitness for any purpose is made or implied.

flag of Cataloniaflag of Spain

Donate via PayPal

Additional information is available on the NEW Great Circle Mapper

Location
City:  Lleida, Catalonia, Spain
Near (Alt.):Alguaire
Name:Lleida-Alguaire Airport
ICAO / IATA:LEDA / ILD

Details
Type:Airport (Aerodrome, Airfield)
Use:Public/Civil
Latitude:41°43'41"N (41.728056)
Longitude:0°32'07"E (0.535278)
Elevation:1152 ft (351 m)
Runways:1
Longest:8202 × 200 ft (2500 × 61 m)

Weather
METAR:LEDA  041400Z 25005KT 170V320 CAVOK 09/M00 Q1025
TAF:LEDA  040800Z 0409/0509 22005KT 9999 FEW025 TX10/0414Z TN00/0506Z TEMPO 0417/0422 08005KT

Related Locations
Nearby:
Farthest:CHT: 12226 mi / 19675 km
Waitangi [Tuuta], CIT, NZ

Find:

   beyond  
but within

Other Information
Maps:
Links:
Sources:

  


 


Great Circle Mapper   Great Circle Mapper
Great Circle Mapper FAQ   Great Circle Mapper FAQ
  Karl's Home Page
KLSē   KLSē Home
   GC on Facebook
Airlines of the World   Airlines of the World
Donate via PayPal


Copyright © 2004-2019, Karl L. Swartz. All rights reserved.
All trademarks mentioned herein belong to their respective owners.

Please see credits for attribution and copyright information.

Karl Swartz <karl@kls2.com>
  Powered by FreeBSD
Valid HTML 4.01!
Labeled with ICRA
hCard Microformat
Geo Microformat